Stevens, PA (17578)

1:59 PM EDT on August 23, 2017 (GMT -0400)
Misty Meadows | | Change Station

Elev 312 ft 40.19 °N, 76.16 °W | Updated 9 seconds ago

Partly Cloudy
Partly Cloudy
78.1 °F
Feels Like 80 °F
N
0.0
Wind Variable Wind from NW
Gusts 0.0 mph

Today
High -- | Low -- °F
--% Chance of Precip.
Yesterday
High -- | Low -- °F
Precip. -- in
Pressure 29.89 in
Visibility 10.0 miles
Clouds Few 5500 ft
Heat Index 80 °F
Dew Point 66 °F
Humidity 66%
Rainfall 0.04 in
Snow Depth Not available.
6:23 AM 7:49 PM
Waxing Crescent, 5% visible
METAR KLNS 231753Z 32009KT 10SM FEW055 25/14 A2990 RMK AO2 SLP122 T02500139 10267 20228 58001
Pressure 29.89 in
Visibility 10.0 miles
Clouds Few 5500 ft
Heat Index 80 °F
Dew Point 66 °F
Humidity 66%
Rainfall 0.04 in
Snow Depth Not available.
6:23 AM 7:49 PM
Waxing Crescent, 5% visible
METAR KLNS 231753Z 32009KT 10SM FEW055 25/14 A2990 RMK AO2 SLP122 T02500139 10267 20228 58001

Get Severe Weather Alerts

Thanks for signing up!

Be on the lookout for a verification email in your inbox.

You'll start receiving the daily forecast at 6 AM.

×

10-Day Weather Forecast

Almanac

Astronomy

Aug. 23, 2017 Rise Set
Actual Time
Civil Twilight
Nautical Twilight
Astronomical Twilight
Moon
Length of Visible Light
Length of Day
Tomorrow will be .
, % of the Moon is Illuminated

Today's Extremes

State Highs State Lows

Community

WunderPhotos

Category 6

Welcome to Category 6. This is the collective home for Weather Underground's featured writeups by Dr. Jeff Masters (right), Bob Henson (left), Chris Burt, and other regular contributors.

Nearby

Air Quality

  Air Quality AQ Index Pollutant
Not available.

Snow Depth

Station Depth Elevation

Earthquake Activity

City Distance Mag. Time & Date
Minimum magnitude displayed is 2.5.

Coastal Water Temperatures

Place Temperature

Stations

Nearby Weather Stations

Station Location Temp. Windchill Dew Point Humidity Wind Precip. Elev Updated Type
                   

Watches & Warnings

There are currently no watches in effect.